createdAt,value
2022-10-17T00:01:16.740Z,99.90
2022-10-17T00:03:44.396Z,99.90
2022-10-17T00:06:14.365Z,99.90
2022-10-17T00:08:45.646Z,99.90
2022-10-17T00:11:17.236Z,99.90
2022-10-17T00:13:45.942Z,99.90
2022-10-17T00:16:14.308Z,99.90
2022-10-17T00:18:48.724Z,99.90
2022-10-17T00:21:18.181Z,99.90
2022-10-17T00:23:47.034Z,99.90
2022-10-17T00:26:16.137Z,99.90
2022-10-17T00:28:47.174Z,99.90
2022-10-17T00:31:20.626Z,99.90
2022-10-17T00:33:51.700Z,99.90
2022-10-17T00:36:24.755Z,99.90
2022-10-17T00:38:55.783Z,99.90
2022-10-17T00:41:30.586Z,99.90
2022-10-17T00:44:27.785Z,99.90
2022-10-17T00:47:04.082Z,99.90
2022-10-17T00:49:34.668Z,99.90
2022-10-17T00:52:08.663Z,99.90
2022-10-17T00:54:41.473Z,99.90
2022-10-17T00:57:10.074Z,99.90
2022-10-17T00:59:40.384Z,99.90
2022-10-17T01:02:17.329Z,99.90
2022-10-17T01:04:48.529Z,99.90
2022-10-17T01:07:16.865Z,99.90
2022-10-17T01:09:46.103Z,99.90
2022-10-17T01:12:54.771Z,99.90
2022-10-17T01:15:42.249Z,99.90
2022-10-17T01:18:26.447Z,99.90
2022-10-17T01:21:17.495Z,99.90
2022-10-17T01:24:19.088Z,99.90
2022-10-17T01:27:11.291Z,99.90
2022-10-17T01:30:00.792Z,99.90
2022-10-17T01:32:40.474Z,99.90
2022-10-17T01:35:24.483Z,99.90
2022-10-17T01:38:38.532Z,99.90
2022-10-17T01:41:33.164Z,99.90
2022-10-17T01:44:20.901Z,99.90
2022-10-17T01:46:53.969Z,99.90
2022-10-17T01:49:29.967Z,99.90
2022-10-17T01:52:07.707Z,99.90
2022-10-17T01:54:55.244Z,99.90
2022-10-17T01:57:32.461Z,99.90
2022-10-17T02:00:02.160Z,99.90
2022-10-17T02:02:35.104Z,99.90
2022-10-17T02:05:07.212Z,99.90
2022-10-17T02:07:37.923Z,99.90
2022-10-17T02:10:16.366Z,99.90
2022-10-17T02:13:14.416Z,99.90
2022-10-17T02:16:28.229Z,99.90
2022-10-17T02:19:24.518Z,99.90
2022-10-17T02:22:13.389Z,99.90
2022-10-17T02:25:01.063Z,99.90
2022-10-17T02:27:45.123Z,99.90
2022-10-17T02:30:14.948Z,99.90
2022-10-17T02:32:55.060Z,99.90
2022-10-17T02:35:33.166Z,99.90
2022-10-17T02:38:02.342Z,99.90
2022-10-17T02:40:34.951Z,99.90
2022-10-17T02:43:02.680Z,99.90
2022-10-17T02:45:36.103Z,99.90
2022-10-17T02:48:28.060Z,99.90
2022-10-17T02:51:04.081Z,99.90
2022-10-17T02:54:07.679Z,99.90
2022-10-17T02:56:48.978Z,99.90
2022-10-17T02:59:20.844Z,99.90
2022-10-17T03:01:51.830Z,99.90
2022-10-17T03:04:19.919Z,99.90
2022-10-17T03:06:49.347Z,99.90
2022-10-17T03:09:17.691Z,99.90
2022-10-17T03:11:45.908Z,99.90
2022-10-17T03:14:13.761Z,99.90
2022-10-17T03:16:42.589Z,99.90
2022-10-17T03:19:10.477Z,99.90
2022-10-17T03:21:38.788Z,99.90
2022-10-17T03:24:08.889Z,99.90
2022-10-17T03:26:37.075Z,99.90
2022-10-17T03:29:05.528Z,99.90
2022-10-17T03:31:34.999Z,99.90
2022-10-17T03:34:04.296Z,99.90
2022-10-17T03:36:32.359Z,99.90
2022-10-17T03:39:00.177Z,99.90
2022-10-17T03:41:28.868Z,99.90
2022-10-17T03:43:56.624Z,99.90
2022-10-17T03:46:25.601Z,99.90
2022-10-17T03:48:55.137Z,99.90
2022-10-17T03:51:23.485Z,99.90
2022-10-17T03:53:55.582Z,99.90
2022-10-17T03:56:25.455Z,99.90
2022-10-17T03:59:13.274Z,99.90
2022-10-17T04:01:42.186Z,99.90
2022-10-17T04:04:10.940Z,99.90
2022-10-17T04:06:39.427Z,99.90
2022-10-17T04:09:08.363Z,99.90
2022-10-17T04:12:05.852Z,99.90
2022-10-17T04:14:34.405Z,99.90
2022-10-17T04:17:03.691Z,99.90
2022-10-17T04:19:32.925Z,99.90
2022-10-17T04:22:04.265Z,99.90
2022-10-17T04:24:35.603Z,99.90
2022-10-17T04:27:12.759Z,99.90
2022-10-17T04:29:44.522Z,99.90
2022-10-17T04:32:18.027Z,99.90
2022-10-17T04:35:06.750Z,99.90
2022-10-17T04:37:35.189Z,99.90
2022-10-17T04:40:10.065Z,99.90
2022-10-17T04:42:38.636Z,99.90
2022-10-17T04:45:08.088Z,99.90
2022-10-17T04:47:37.647Z,99.90
2022-10-17T04:50:06.635Z,99.90
2022-10-17T04:52:39.733Z,99.90
2022-10-17T04:55:09.370Z,99.90
2022-10-17T04:57:37.830Z,99.90
2022-10-17T05:00:13.788Z,99.90
2022-10-17T05:03:02.163Z,99.90
2022-10-17T05:05:31.288Z,99.90
2022-10-17T05:07:59.710Z,99.90
2022-10-17T05:10:31.793Z,99.90
2022-10-17T05:13:03.324Z,99.90
2022-10-17T05:15:33.659Z,99.90
2022-10-17T05:18:03.403Z,99.90
2022-10-17T05:20:33.691Z,99.90
2022-10-17T05:23:02.657Z,99.90
2022-10-17T05:25:36.003Z,99.90
2022-10-17T05:28:04.580Z,99.90
2022-10-17T05:30:35.232Z,99.90
2022-10-17T05:33:06.886Z,99.90
2022-10-17T05:35:35.098Z,99.90
2022-10-17T05:38:03.353Z,99.90
2022-10-17T05:40:34.661Z,99.90
2022-10-17T05:43:04.049Z,99.90
2022-10-17T05:45:32.154Z,99.90
2022-10-17T05:48:01.215Z,99.90
2022-10-17T05:50:29.644Z,99.90
2022-10-17T05:53:05.684Z,99.90
2022-10-17T05:55:39.495Z,99.90
2022-10-17T05:58:09.751Z,99.90
2022-10-17T06:03:32.928Z,99.90
2022-10-17T06:06:07.206Z,99.90
2022-10-17T06:08:36.083Z,99.90
2022-10-17T06:11:09.083Z,99.90
2022-10-17T06:13:39.562Z,99.90
2022-10-17T06:16:13.970Z,99.90
2022-10-17T06:18:42.152Z,99.90
2022-10-17T06:21:11.972Z,99.90
2022-10-17T06:23:47.954Z,99.90
2022-10-17T06:26:21.077Z,99.90
2022-10-17T06:28:50.168Z,99.90
2022-10-17T06:31:19.191Z,99.90
2022-10-17T06:33:47.597Z,99.90
2022-10-17T06:36:15.888Z,99.90
2022-10-17T06:38:46.293Z,99.90
2022-10-17T06:41:29.656Z,99.90
2022-10-17T06:44:11.193Z,99.90
2022-10-17T06:46:40.137Z,99.90
2022-10-17T06:49:11.202Z,99.90
2022-10-17T06:51:59.389Z,99.90
2022-10-17T06:54:36.981Z,99.90
2022-10-17T06:57:23.740Z,99.90
2022-10-17T07:00:07.163Z,99.90
2022-10-17T07:02:43.794Z,99.90
2022-10-17T07:05:14.162Z,99.90
2022-10-17T07:07:44.182Z,99.90
2022-10-17T07:10:13.743Z,99.90
2022-10-17T07:12:42.615Z,99.90
2022-10-17T07:15:11.224Z,99.90
2022-10-17T07:17:39.773Z,99.90
2022-10-17T07:20:08.883Z,99.90
2022-10-17T07:22:38.891Z,99.90
2022-10-17T07:25:08.732Z,99.90
2022-10-17T07:27:59.629Z,99.90
2022-10-17T07:30:28.264Z,99.90
2022-10-17T07:33:09.552Z,99.90
2022-10-17T07:35:41.199Z,99.90
2022-10-17T07:38:09.399Z,99.90
2022-10-17T07:40:38.734Z,99.90
2022-10-17T07:43:06.772Z,99.90
2022-10-17T07:45:38.859Z,99.90
2022-10-17T07:48:09.178Z,99.90
2022-10-17T07:50:37.282Z,99.90
2022-10-17T07:53:05.015Z,99.90
2022-10-17T07:55:33.043Z,99.90
2022-10-17T07:58:01.110Z,99.90
2022-10-17T08:00:29.320Z,99.90
2022-10-17T08:02:59.907Z,99.90
2022-10-17T08:05:28.925Z,99.90
2022-10-17T08:07:56.767Z,99.90
2022-10-17T08:10:30.429Z,99.90
2022-10-17T08:12:59.226Z,99.90
2022-10-17T08:15:30.916Z,99.90
2022-10-17T08:17:59.978Z,99.90
2022-10-17T08:20:29.087Z,99.90
2022-10-17T08:22:56.988Z,99.90
2022-10-17T08:25:27.399Z,99.90
2022-10-17T08:27:55.279Z,99.90
2022-10-17T08:30:23.484Z,99.90
2022-10-17T08:32:51.634Z,99.90
2022-10-17T08:35:21.686Z,99.90
2022-10-17T08:37:49.588Z,99.90
2022-10-17T08:40:27.682Z,99.90
2022-10-17T08:43:36.493Z,99.90
2022-10-17T08:46:08.222Z,99.90
2022-10-17T08:48:45.620Z,99.90
2022-10-17T08:51:20.299Z,99.90
2022-10-17T08:54:17.229Z,99.90
2022-10-17T08:56:51.313Z,99.90
2022-10-17T08:59:30.663Z,99.90
2022-10-17T09:02:25.082Z,99.90
2022-10-17T09:05:25.532Z,99.90
2022-10-17T09:08:06.059Z,99.90
2022-10-17T09:10:52.560Z,99.90
2022-10-17T09:13:53.434Z,99.90
2022-10-17T09:16:31.281Z,99.90
2022-10-17T09:19:08.743Z,99.90
2022-10-17T09:21:59.074Z,99.90
2022-10-17T09:24:57.276Z,99.90
2022-10-17T09:27:51.661Z,99.90
2022-10-17T09:30:45.273Z,99.90
2022-10-17T09:33:28.095Z,99.90
2022-10-17T09:36:21.734Z,99.90
2022-10-17T09:39:26.871Z,99.90
2022-10-17T09:41:57.695Z,99.90
2022-10-17T09:44:34.373Z,99.90
2022-10-17T09:47:17.754Z,99.90
2022-10-17T09:49:47.840Z,99.90
2022-10-17T09:52:47.927Z,99.90
2022-10-17T09:55:22.484Z,99.90
2022-10-17T09:57:53.772Z,99.90
2022-10-17T10:00:30.367Z,99.90
2022-10-17T10:03:19.579Z,99.90
2022-10-17T10:06:02.463Z,99.90
2022-10-17T10:08:37.016Z,99.90
2022-10-17T10:11:13.517Z,99.90
2022-10-17T10:13:49.491Z,99.90
2022-10-17T10:16:24.625Z,99.90
2022-10-17T10:18:55.706Z,99.90
2022-10-17T10:21:24.686Z,99.90
2022-10-17T10:24:11.009Z,99.80
2022-10-17T10:26:38.750Z,99.90
2022-10-17T10:29:22.467Z,99.90
2022-10-17T10:31:51.667Z,99.90
2022-10-17T10:34:29.280Z,99.90
2022-10-17T10:37:06.266Z,99.90
2022-10-17T10:39:46.898Z,99.90
2022-10-17T10:42:29.325Z,99.50
2022-10-17T10:45:42.773Z,99.70
2022-10-17T10:48:24.158Z,99.80
2022-10-17T10:51:14.565Z,99.80
2022-10-17T10:54:12.014Z,99.80
2022-10-17T10:56:53.629Z,99.90
2022-10-17T10:59:42.232Z,99.60
2022-10-17T11:02:20.505Z,99.60
2022-10-17T11:04:58.358Z,99.50
2022-10-17T11:07:41.225Z,99.50
2022-10-17T11:10:37.814Z,99.10
2022-10-17T11:13:10.293Z,98.80
2022-10-17T11:15:53.206Z,99.00
2022-10-17T11:18:35.529Z,98.80
2022-10-17T11:21:29.130Z,98.40
2022-10-17T11:24:10.280Z,97.70
2022-10-17T11:26:54.977Z,98.20
2022-10-17T11:29:30.967Z,98.00
2022-10-17T11:32:27.726Z,97.80
2022-10-17T11:35:02.244Z,97.70
2022-10-17T11:37:40.922Z,97.70
2022-10-17T11:40:30.154Z,97.70
2022-10-17T11:43:02.689Z,97.60
2022-10-17T11:45:50.340Z,97.60
2022-10-17T11:48:21.672Z,97.10
2022-10-17T11:53:46.753Z,97.10
2022-10-17T11:56:20.616Z,97.10
2022-10-17T11:59:06.617Z,97.10
2022-10-17T12:01:40.592Z,97.10
2022-10-17T12:04:25.728Z,96.70
2022-10-17T12:07:00.354Z,96.80
2022-10-17T12:09:41.076Z,97.00
2022-10-17T12:12:09.335Z,97.00
2022-10-17T12:14:47.412Z,97.00
2022-10-17T12:17:37.038Z,96.90
2022-10-17T12:20:28.977Z,96.70
2022-10-17T12:23:03.244Z,96.80
2022-10-17T12:25:34.573Z,96.70
2022-10-17T12:28:11.463Z,96.60
2022-10-17T12:30:52.825Z,96.40
2022-10-17T12:33:22.790Z,96.20
2022-10-17T12:35:52.323Z,96.20
2022-10-17T12:38:24.144Z,96.10
2022-10-17T12:41:01.767Z,96.20
2022-10-17T12:43:30.009Z,96.10
2022-10-17T12:46:05.005Z,96.20
2022-10-17T12:48:39.042Z,96.20
2022-10-17T12:51:37.326Z,96.20
2022-10-17T12:54:08.557Z,96.30
2022-10-17T12:56:43.179Z,96.50
2022-10-17T12:59:20.151Z,96.50
2022-10-17T13:01:51.221Z,96.60
2022-10-17T13:04:20.381Z,96.70
2022-10-17T13:06:54.380Z,96.70
2022-10-17T13:09:27.854Z,96.70
2022-10-17T13:11:58.108Z,96.60
2022-10-17T13:14:27.493Z,96.60
2022-10-17T13:16:58.216Z,96.60
2022-10-17T13:19:51.275Z,96.60
2022-10-17T13:22:25.018Z,96.60
2022-10-17T13:25:07.533Z,96.50
2022-10-17T13:27:36.471Z,96.70
2022-10-17T13:30:27.908Z,96.70
2022-10-17T13:32:59.492Z,96.70
2022-10-17T13:38:24.620Z,96.80
2022-10-17T13:41:01.363Z,96.80
2022-10-17T13:43:33.841Z,96.80
2022-10-17T13:46:25.630Z,96.70
2022-10-17T13:48:54.425Z,96.70
2022-10-17T13:51:23.489Z,96.80
2022-10-17T13:53:51.370Z,96.80
2022-10-17T13:56:29.611Z,96.80
2022-10-17T13:59:08.917Z,96.80
2022-10-17T14:01:38.473Z,96.90
2022-10-17T14:04:13.707Z,96.90
2022-10-17T14:06:51.177Z,96.80
2022-10-17T14:09:30.187Z,96.90
2022-10-17T14:12:01.103Z,96.90
2022-10-17T14:14:32.159Z,96.90
2022-10-17T14:17:32.596Z,97.00
2022-10-17T14:20:34.397Z,96.90
2022-10-17T14:23:21.316Z,97.10
2022-10-17T14:25:44.293Z,97.10
2022-10-17T14:28:14.348Z,97.10
2022-10-17T14:31:03.201Z,97.10
2022-10-17T14:33:33.894Z,97.20
2022-10-17T14:36:03.969Z,97.20
2022-10-17T14:38:32.514Z,97.30
2022-10-17T14:41:43.019Z,97.40
2022-10-17T14:44:43.642Z,97.40
2022-10-17T14:47:42.166Z,97.50
2022-10-17T14:50:11.412Z,97.50
2022-10-17T14:52:39.324Z,97.60
2022-10-17T14:55:35.108Z,97.70
2022-10-17T14:58:23.241Z,97.80
2022-10-17T15:00:51.233Z,97.90
2022-10-17T15:03:19.765Z,97.90
2022-10-17T15:05:49.278Z,97.90
2022-10-17T15:08:19.646Z,98.00
2022-10-17T15:10:49.511Z,98.10
2022-10-17T15:13:39.912Z,98.20
2022-10-17T15:16:35.699Z,98.30
2022-10-17T15:19:03.606Z,98.50
2022-10-17T15:21:39.517Z,98.50
2022-10-17T15:24:08.469Z,98.50
2022-10-17T15:26:37.238Z,98.60
2022-10-17T15:29:08.045Z,98.60
2022-10-17T15:31:36.169Z,98.70
2022-10-17T15:34:03.961Z,98.80
2022-10-17T15:36:41.980Z,98.80
2022-10-17T15:39:10.485Z,98.70
2022-10-17T15:41:38.868Z,98.70
2022-10-17T15:44:06.935Z,98.70
2022-10-17T15:46:36.514Z,99.10
2022-10-17T15:49:08.114Z,98.90
2022-10-17T15:51:36.584Z,98.90
2022-10-17T15:54:05.859Z,99.00
2022-10-17T15:56:40.820Z,99.10
2022-10-17T15:59:15.424Z,99.20
2022-10-17T16:01:44.281Z,99.20
2022-10-17T16:04:15.647Z,99.20
2022-10-17T16:06:43.867Z,99.30
2022-10-17T16:09:14.550Z,99.30
2022-10-17T16:11:44.409Z,99.30
2022-10-17T16:14:18.480Z,99.30
2022-10-17T16:16:51.631Z,99.30
2022-10-17T16:19:22.995Z,99.40
2022-10-17T16:21:54.534Z,99.40
2022-10-17T16:24:25.244Z,99.40
2022-10-17T16:26:56.227Z,99.60
2022-10-17T16:29:24.259Z,99.80
2022-10-17T16:31:52.402Z,99.60
2022-10-17T16:34:23.369Z,99.70
2022-10-17T16:36:51.607Z,99.70
2022-10-17T16:39:19.549Z,99.70
2022-10-17T16:41:48.037Z,99.70
2022-10-17T16:44:18.039Z,99.70
2022-10-17T16:46:46.117Z,99.70
2022-10-17T16:49:16.211Z,99.70
2022-10-17T16:51:44.533Z,99.70
2022-10-17T16:54:12.598Z,99.80
2022-10-17T16:56:42.314Z,99.80
2022-10-17T16:59:11.350Z,99.80
2022-10-17T17:01:39.862Z,99.90
2022-10-17T17:04:09.597Z,99.90
2022-10-17T17:06:38.120Z,99.90
2022-10-17T17:09:06.704Z,99.90
2022-10-17T17:11:37.677Z,99.90
2022-10-17T17:14:11.048Z,99.90
2022-10-17T17:16:39.517Z,99.90
2022-10-17T17:19:11.518Z,99.90
2022-10-17T17:21:39.781Z,99.90
2022-10-17T17:24:10.639Z,99.90
2022-10-17T17:26:42.010Z,99.90
2022-10-17T17:29:11.922Z,99.90
2022-10-17T17:31:40.167Z,99.90
2022-10-17T17:34:12.088Z,99.90
2022-10-17T17:36:43.608Z,99.90
2022-10-17T17:39:14.303Z,99.90
2022-10-17T17:41:44.126Z,99.90
2022-10-17T17:44:16.767Z,99.90
2022-10-17T17:46:49.719Z,99.90
2022-10-17T17:49:17.549Z,99.90
2022-10-17T17:51:46.777Z,99.90
2022-10-17T17:54:14.909Z,99.90
2022-10-17T17:56:45.402Z,99.90
2022-10-17T17:59:13.898Z,99.90
2022-10-17T18:01:43.240Z,99.90
2022-10-17T18:04:12.136Z,99.90
2022-10-17T18:06:44.268Z,99.90
2022-10-17T18:09:12.481Z,99.90
2022-10-17T18:11:43.305Z,99.90
2022-10-17T18:14:13.790Z,99.90
2022-10-17T18:16:42.444Z,99.90
2022-10-17T18:19:11.972Z,99.90
2022-10-17T18:21:40.179Z,99.90
2022-10-17T18:24:11.400Z,99.90
2022-10-17T18:26:39.765Z,99.90
2022-10-17T18:29:07.727Z,99.90
2022-10-17T18:31:38.775Z,99.90
2022-10-17T18:34:06.656Z,99.90
2022-10-17T18:36:37.995Z,99.90
2022-10-17T18:39:06.411Z,99.90
2022-10-17T18:41:36.690Z,99.90
2022-10-17T18:44:04.810Z,99.90
2022-10-17T18:46:40.245Z,99.90
2022-10-17T18:49:23.401Z,99.90
2022-10-17T18:51:51.826Z,99.90
2022-10-17T18:54:21.828Z,99.90
2022-10-17T18:56:51.534Z,99.90
2022-10-17T18:59:20.516Z,99.90
2022-10-17T19:01:49.205Z,99.90
2022-10-17T19:04:17.292Z,99.90
2022-10-17T19:06:45.445Z,99.90
2022-10-17T19:09:14.656Z,99.90
2022-10-17T19:11:43.387Z,99.90
2022-10-17T19:14:15.347Z,99.90
2022-10-17T19:16:47.037Z,99.90
2022-10-17T19:19:21.690Z,99.90
2022-10-17T19:21:50.635Z,99.90
2022-10-17T19:24:26.718Z,99.90
2022-10-17T19:26:57.838Z,99.90
2022-10-17T19:29:26.911Z,99.90
2022-10-17T19:34:23.726Z,99.90
2022-10-17T19:36:51.763Z,99.90
2022-10-17T19:39:23.553Z,99.90
2022-10-17T19:41:51.727Z,99.90
2022-10-17T19:44:19.594Z,99.90
2022-10-17T19:46:49.474Z,99.90
2022-10-17T19:49:17.822Z,99.90
2022-10-17T19:51:46.460Z,99.90
2022-10-17T19:54:16.803Z,99.90
2022-10-17T19:56:45.188Z,99.90
2022-10-17T19:59:14.940Z,99.90
2022-10-17T20:01:43.935Z,99.90
2022-10-17T20:04:13.140Z,99.90
2022-10-17T20:06:44.073Z,99.90
2022-10-17T20:09:16.528Z,99.90
2022-10-17T20:11:45.869Z,99.90
2022-10-17T20:14:13.817Z,99.90
2022-10-17T20:16:42.664Z,99.90
2022-10-17T20:19:12.670Z,99.90
2022-10-17T20:21:42.477Z,99.90
2022-10-17T20:24:14.504Z,99.90
2022-10-17T20:26:43.494Z,99.90
2022-10-17T20:29:21.782Z,99.90
2022-10-17T20:31:50.273Z,99.90
2022-10-17T20:34:19.833Z,99.90
2022-10-17T20:36:48.761Z,99.90
2022-10-17T20:39:18.534Z,99.90
2022-10-17T20:41:47.262Z,99.90
2022-10-17T20:44:17.374Z,99.90
2022-10-17T20:47:00.594Z,99.90
2022-10-17T20:49:30.320Z,99.90
2022-10-17T20:51:59.342Z,99.90
2022-10-17T20:54:30.642Z,99.90
2022-10-17T20:57:02.479Z,99.90
2022-10-17T20:59:34.518Z,99.90
2022-10-17T21:02:04.249Z,99.90
2022-10-17T21:04:45.922Z,99.90
2022-10-17T21:07:18.100Z,99.90
2022-10-17T21:09:48.363Z,99.90
2022-10-17T21:12:25.922Z,99.90
2022-10-17T21:15:04.813Z,99.90
2022-10-17T21:17:35.331Z,99.90
2022-10-17T21:20:03.306Z,99.90
2022-10-17T21:22:34.983Z,99.90
2022-10-17T21:25:02.724Z,99.90
2022-10-17T21:27:33.229Z,99.90
2022-10-17T21:30:01.123Z,99.90
2022-10-17T21:32:47.221Z,99.90
2022-10-17T21:35:17.208Z,99.90
2022-10-17T21:37:45.278Z,99.90
2022-10-17T21:40:13.314Z,99.90
2022-10-17T21:42:41.449Z,99.90
2022-10-17T21:45:15.162Z,99.90
2022-10-17T21:47:54.899Z,99.90
2022-10-17T21:50:32.624Z,99.90
2022-10-17T21:53:01.027Z,99.90
2022-10-17T21:55:29.007Z,99.90
2022-10-17T21:57:57.223Z,99.90
2022-10-17T22:00:25.182Z,99.90
2022-10-17T22:02:53.464Z,99.90
2022-10-17T22:05:21.409Z,99.90
2022-10-17T22:07:52.017Z,99.90
2022-10-17T22:10:20.025Z,99.90
2022-10-17T22:12:48.073Z,99.90
2022-10-17T22:15:16.022Z,99.90
2022-10-17T22:17:44.116Z,99.90
2022-10-17T22:20:11.975Z,99.90
2022-10-17T22:22:40.032Z,99.90
2022-10-17T22:25:08.285Z,99.90
2022-10-17T22:27:36.291Z,99.90
2022-10-17T22:30:05.334Z,99.90
2022-10-17T22:32:33.386Z,99.90
2022-10-17T22:35:01.194Z,99.90
2022-10-17T22:37:29.361Z,99.90
2022-10-17T22:39:57.385Z,99.90
2022-10-17T22:42:25.431Z,99.90
2022-10-17T22:44:53.144Z,99.90
2022-10-17T22:47:21.135Z,99.90
2022-10-17T22:49:48.901Z,99.90
2022-10-17T22:52:16.947Z,99.90
2022-10-17T22:54:44.770Z,99.90
2022-10-17T22:57:13.411Z,99.90
2022-10-17T22:59:41.193Z,99.90
2022-10-17T23:02:09.219Z,99.90
2022-10-17T23:04:37.486Z,99.90
2022-10-17T23:07:11.669Z,99.90
2022-10-17T23:09:39.575Z,99.90
2022-10-17T23:12:09.039Z,99.90
2022-10-17T23:14:43.454Z,99.90
2022-10-17T23:17:13.229Z,99.90
2022-10-17T23:19:41.394Z,99.90
2022-10-17T23:22:10.200Z,99.90
2022-10-17T23:24:37.965Z,99.90
2022-10-17T23:27:06.392Z,99.90
2022-10-17T23:29:35.462Z,99.90
2022-10-17T23:32:03.599Z,99.90
2022-10-17T23:34:31.789Z,99.90
2022-10-17T23:36:59.882Z,99.90
2022-10-17T23:39:27.761Z,99.90
2022-10-17T23:41:55.933Z,99.90
2022-10-17T23:44:24.048Z,99.90
2022-10-17T23:46:52.270Z,99.90
2022-10-17T23:49:20.043Z,99.90
2022-10-17T23:51:50.404Z,99.90
2022-10-17T23:54:18.231Z,99.90
2022-10-17T23:56:46.537Z,99.90
2022-10-17T23:59:14.241Z,99.90
